Time;durP1;ratioP1;P1;durP2;ratioP2;P2;SDS_P1;SDS_P2;PMS_P1;PMS_P2;Temp;Humidity;BMP_temperature;BMP_pressure;BME280_temperature;BME280_humidity;BME280_pressure;Samples;Min_cycle;Max_cycle;Signal;HPM_P1;HPM_P2
2023/08/30 00:00:45;;;;;;;16.58;13.15;;;;;;;;;;5018840;28;20413;-75
2023/08/30 00:03:12;;;;;;;16.05;13.52;;;;;;;;;;4952445;28;20037;-75
2023/08/30 00:05:41;;;;;;;14.88;13.20;;;;;;;;;;5015546;28;20025;-75
2023/08/30 00:08:06;;;;;;;16.70;12.70;;;;;;;;;;5008863;28;20972;-75
2023/08/30 00:10:32;;;;;;;14.18;12.20;;;;;;;;;;5016477;28;20448;-74
2023/08/30 00:12:57;;;;;;;14.73;12.30;;;;;;;;;;5015866;28;20018;-75
2023/08/30 00:15:23;;;;;;;13.98;12.05;;;;;;;;;;4996542;28;20052;-74
2023/08/30 00:17:48;;;;;;;16.42;11.48;;;;;;;;;;5012673;28;20046;-75
2023/08/30 00:20:13;;;;;;;14.00;12.52;;;;;;;;;;5016495;28;20036;-75
2023/08/30 00:22:39;;;;;;;16.65;12.70;;;;;;;;;;5013842;28;20621;-76
2023/08/30 00:25:10;;;;;;;15.98;13.35;;;;;;;;;;5015383;28;20034;-74
2023/08/30 00:27:35;;;;;;;14.65;12.68;;;;;;;;;;5016487;28;20029;-75
2023/08/30 00:30:01;;;;;;;15.18;13.00;;;;;;;;;;5008191;28;20080;-74
2023/08/30 00:32:27;;;;;;;15.82;12.85;;;;;;;;;;5004148;28;20029;-76
2023/08/30 00:34:53;;;;;;;14.73;12.52;;;;;;;;;;5013623;28;20026;-77
2023/08/30 00:37:18;;;;;;;15.10;12.52;;;;;;;;;;5009185;28;20060;-76
2023/08/30 00:39:45;;;;;;;14.10;12.15;;;;;;;;;;5009968;28;20469;-76
2023/08/30 00:42:11;;;;;;;14.85;10.52;;;;;;;;;;5016881;28;20791;-75
2023/08/30 00:44:38;;;;;;;13.13;9.73;;;;;;;;;;5018007;28;20025;-76
2023/08/30 00:47:04;;;;;;;13.43;9.80;;;;;;;;;;4992151;28;20050;-77
2023/08/30 00:49:33;;;;;;;11.50;8.82;;;;;;;;;;4988540;28;20060;-77
2023/08/30 00:52:02;;;;;;;11.23;9.80;;;;;;;;;;4995648;28;20026;-75
2023/08/30 00:54:29;;;;;;;13.13;8.77;;;;;;;;;;5013844;28;20053;-75
2023/08/30 00:56:57;;;;;;;13.13;9.55;;;;;;;;;;4983448;28;20247;-77
2023/08/30 00:59:23;;;;;;;12.77;8.85;;;;;;;;;;5016519;28;20453;-76
2023/08/30 01:01:48;;;;;;;9.43;8.52;;;;;;;;;;5015416;28;20080;-77
2023/08/30 01:04:15;;;;;;;12.52;9.25;;;;;;;;;;5011827;28;20017;-77
2023/08/30 01:06:41;;;;;;;14.23;8.93;;;;;;;;;;4996897;28;20415;-77
2023/08/30 01:09:09;;;;;;;12.68;8.88;;;;;;;;;;5014866;28;20022;-77
2023/08/30 01:11:46;;;;;;;9.02;8.13;;;;;;;;;;4997181;28;20037;-77
2023/08/30 01:14:14;;;;;;;9.95;8.55;;;;;;;;;;5009502;28;20029;-76
2023/08/30 01:16:40;;;;;;;11.15;9.15;;;;;;;;;;5004443;28;20037;-77
2023/08/30 01:19:23;;;;;;;12.35;9.48;;;;;;;;;;5005410;28;20030;-76
2023/08/30 01:22:08;;;;;;;9.43;8.45;;;;;;;;;;5009402;28;20018;-76
2023/08/30 01:24:42;;;;;;;14.93;9.32;;;;;;;;;;4990950;28;20021;-77
2023/08/30 01:27:08;;;;;;;10.73;9.73;;;;;;;;;;5009327;28;20029;-76
2023/08/30 01:29:36;;;;;;;11.85;9.27;;;;;;;;;;5012604;28;20029;-77
2023/08/30 01:32:02;;;;;;;13.48;9.63;;;;;;;;;;5012331;28;20037;-76
2023/08/30 01:34:28;;;;;;;13.75;9.27;;;;;;;;;;5014082;28;20025;-76
2023/08/30 01:36:56;;;;;;;13.57;8.65;;;;;;;;;;5019437;28;20022;-77
2023/08/30 01:39:22;;;;;;;12.55;8.73;;;;;;;;;;4999836;28;20026;-76
2023/08/30 01:41:48;;;;;;;17.25;9.85;;;;;;;;;;5018878;28;20448;-76
2023/08/30 01:44:16;;;;;;;13.82;10.93;;;;;;;;;;5017323;28;20027;-76
2023/08/30 01:46:42;;;;;;;15.25;10.95;;;;;;;;;;5018350;28;20025;-76
2023/08/30 01:49:09;;;;;;;16.42;10.80;;;;;;;;;;5011298;28;20084;-76
2023/08/30 01:51:35;;;;;;;12.32;10.35;;;;;;;;;;5018620;28;20056;-77
2023/08/30 01:54:00;;;;;;;14.23;10.23;;;;;;;;;;5021078;28;20065;-76
2023/08/30 01:56:26;;;;;;;17.63;11.30;;;;;;;;;;5019877;28;20452;-76
2023/08/30 01:58:52;;;;;;;18.65;11.52;;;;;;;;;;5015855;28;20033;-76
2023/08/30 02:01:18;;;;;;;20.13;11.57;;;;;;;;;;5021571;28;20028;-76
2023/08/30 02:03:44;;;;;;;15.20;11.05;;;;;;;;;;5021498;28;20022;-76
2023/08/30 02:06:24;;;;;;;14.95;11.38;;;;;;;;;;5019764;28;20364;-77
2023/08/30 02:09:01;;;;;;;15.00;11.65;;;;;;;;;;5017538;28;20093;-76
2023/08/30 02:11:27;;;;;;;14.98;10.77;;;;;;;;;;5015133;28;20441;-76
2023/08/30 02:13:54;;;;;;;12.18;10.95;;;;;;;;;;5017354;28;20036;-76
2023/08/30 02:16:22;;;;;;;13.43;11.80;;;;;;;;;;5019092;28;20564;-76
2023/08/30 02:18:48;;;;;;;14.85;10.95;;;;;;;;;;5017836;28;20037;-76
2023/08/30 02:21:13;;;;;;;20.45;10.82;;;;;;;;;;5016668;28;20409;-77
2023/08/30 02:23:38;;;;;;;17.55;10.48;;;;;;;;;;5011349;28;20033;-76
2023/08/30 02:26:04;;;;;;;15.23;10.90;;;;;;;;;;5007230;28;20330;-77
2023/08/30 02:28:29;;;;;;;12.85;10.65;;;;;;;;;;5019177;28;20048;-77
2023/08/30 02:30:54;;;;;;;24.67;12.80;;;;;;;;;;5015286;28;20457;-76
2023/08/30 02:33:20;;;;;;;12.88;10.63;;;;;;;;;;5018167;28;20033;-76
2023/08/30 02:35:45;;;;;;;13.77;10.68;;;;;;;;;;5017318;28;20128;-77
2023/08/30 02:38:11;;;;;;;19.38;10.75;;;;;;;;;;5019227;28;20409;-77
2023/08/30 02:40:36;;;;;;;13.32;11.10;;;;;;;;;;5020989;28;20291;-77
2023/08/30 02:43:01;;;;;;;15.90;10.90;;;;;;;;;;5014743;28;20033;-77
2023/08/30 02:45:27;;;;;;;20.15;11.90;;;;;;;;;;5018380;28;20046;-77
2023/08/30 02:47:55;;;;;;;16.48;12.20;;;;;;;;;;5015056;28;20052;-77
2023/08/30 02:50:20;;;;;;;19.85;12.85;;;;;;;;;;5006190;28;20137;-75
2023/08/30 02:52:47;;;;;;;13.90;12.18;;;;;;;;;;5005031;28;20155;-75
2023/08/30 02:55:12;;;;;;;17.10;11.10;;;;;;;;;;5008013;28;20444;-75
2023/08/30 02:57:37;;;;;;;15.38;12.85;;;;;;;;;;5010145;28;20342;-76
2023/08/30 03:00:05;;;;;;;12.57;10.88;;;;;;;;;;5001132;28;20036;-75
2023/08/30 03:02:31;;;;;;;15.43;10.95;;;;;;;;;;5000608;28;20309;-75
2023/08/30 03:04:56;;;;;;;13.23;11.25;;;;;;;;;;5001308;28;20035;-76
2023/08/30 03:07:22;;;;;;;12.10;10.85;;;;;;;;;;5018440;28;20040;-75
2023/08/30 03:09:51;;;;;;;14.20;10.60;;;;;;;;;;5017975;28;20032;-77
2023/08/30 03:12:16;;;;;;;;;;;;;;;;;;5020923;28;20029;-77
2023/08/30 03:14:42;;;;;;;16.40;11.23;;;;;;;;;;5018664;28;19932;-76
2023/08/30 03:17:07;;;;;;;18.95;11.50;;;;;;;;;;5020140;28;20093;-77
2023/08/30 03:19:32;;;;;;;15.90;11.15;;;;;;;;;;5017012;28;20057;-77
2023/08/30 03:22:00;;;;;;;13.52;12.15;;;;;;;;;;5018398;28;20048;-77
2023/08/30 03:24:25;;;;;;;13.95;10.82;;;;;;;;;;5009329;28;20037;-77
2023/08/30 03:26:50;;;;;;;16.58;11.65;;;;;;;;;;5008803;28;20029;-76
2023/08/30 03:29:16;;;;;;;16.38;11.38;;;;;;;;;;4991407;28;20032;-76
2023/08/30 03:31:43;;;;;;;14.38;10.75;;;;;;;;;;5016452;28;20029;-77
2023/08/30 03:34:08;;;;;;;18.38;11.43;;;;;;;;;;5017246;28;20022;-77
2023/08/30 03:36:34;;;;;;;14.45;11.60;;;;;;;;;;5011133;28;20084;-75
2023/08/30 03:38:59;;;;;;;15.20;11.50;;;;;;;;;;4998631;28;20353;-76
2023/08/30 03:41:24;;;;;;;20.48;10.90;;;;;;;;;;5017097;28;20124;-76
2023/08/30 03:43:50;;;;;;;18.15;12.18;;;;;;;;;;5018206;28;20449;-75
2023/08/30 03:46:15;;;;;;;17.05;11.90;;;;;;;;;;5017714;28;20021;-77
2023/08/30 03:48:40;;;;;;;20.67;12.35;;;;;;;;;;5015430;28;20112;-77
2023/08/30 03:51:06;;;;;;;14.70;13.30;;;;;;;;;;5014658;28;20449;-76
2023/08/30 03:53:31;;;;;;;16.60;14.10;;;;;;;;;;5017874;28;20028;-76
2023/08/30 03:55:56;;;;;;;17.20;12.15;;;;;;;;;;5018696;28;20507;-76
2023/08/30 03:58:22;;;;;;;13.23;11.77;;;;;;;;;;4997119;28;20026;-76
2023/08/30 04:00:47;;;;;;;15.00;10.85;;;;;;;;;;5016741;28;20431;-75
2023/08/30 04:03:13;;;;;;;13.70;11.15;;;;;;;;;;5006312;28;20342;-75
2023/08/30 04:05:39;;;;;;;17.17;11.80;;;;;;;;;;5005228;28;20437;-76
2023/08/30 04:08:05;;;;;;;12.57;11.27;;;;;;;;;;5003461;28;20032;-76
2023/08/30 04:10:37;;;;;;;16.63;10.52;;;;;;;;;;5002102;28;20061;-76
2023/08/30 04:13:03;;;;;;;11.43;10.23;;;;;;;;;;5003449;28;20057;-76
2023/08/30 04:15:29;;;;;;;11.63;9.85;;;;;;;;;;5004544;28;20057;-76
2023/08/30 04:17:54;;;;;;;13.20;10.30;;;;;;;;;;5005969;28;20365;-76
2023/08/30 04:20:19;;;;;;;15.70;11.00;;;;;;;;;;5004926;28;20029;-76
2023/08/30 04:22:45;;;;;;;15.85;10.18;;;;;;;;;;5007880;28;20033;-77
2023/08/30 04:25:10;;;;;;;11.55;10.00;;;;;;;;;;5017518;28;20041;-76
2023/08/30 04:27:36;;;;;;;12.02;10.60;;;;;;;;;;5015221;28;20412;-76
2023/08/30 04:30:02;;;;;;;16.77;11.70;;;;;;;;;;5015073;28;20469;-75
2023/08/30 04:32:27;;;;;;;17.15;15.38;;;;;;;;;;4988122;28;20843;-76
2023/08/30 04:34:52;;;;;;;17.65;13.93;;;;;;;;;;5005043;28;20112;-76
2023/08/30 04:37:18;;;;;;;19.05;13.52;;;;;;;;;;5005882;28;20361;-76
2023/08/30 04:39:46;;;;;;;21.75;15.45;;;;;;;;;;5009792;28;20030;-76
2023/08/30 04:42:12;;;;;;;17.67;15.77;;;;;;;;;;5006933;28;20449;-76
2023/08/30 04:44:37;;;;;;;15.25;13.20;;;;;;;;;;5018136;28;20116;-77
2023/08/30 04:47:03;;;;;;;14.02;12.57;;;;;;;;;;5011144;28;20077;-77
2023/08/30 04:49:29;;;;;;;19.67;12.27;;;;;;;;;;5014991;28;20364;-76
2023/08/30 04:51:54;;;;;;;12.98;10.82;;;;;;;;;;5013451;28;20032;-77
2023/08/30 04:54:19;;;;;;;14.65;11.52;;;;;;;;;;5009334;28;20022;-76
2023/08/30 04:56:45;;;;;;;17.48;11.65;;;;;;;;;;5011228;28;20026;-77
2023/08/30 04:59:10;;;;;;;17.52;11.13;;;;;;;;;;5012357;28;20068;-76
2023/08/30 05:01:37;;;;;;;15.95;11.95;;;;;;;;;;5014306;28;20025;-76
2023/08/30 05:04:03;;;;;;;15.52;12.55;;;;;;;;;;5006658;28;20373;-76
2023/08/30 05:06:28;;;;;;;14.85;13.07;;;;;;;;;;5003898;28;20068;-76
2023/08/30 05:08:53;;;;;;;16.67;12.65;;;;;;;;;;5004956;28;20029;-77
2023/08/30 05:11:19;;;;;;;16.48;12.95;;;;;;;;;;5003915;28;20068;-76
2023/08/30 05:13:44;;;;;;;14.98;11.93;;;;;;;;;;5010145;28;20048;-76
2023/08/30 05:16:09;;;;;;;11.77;10.45;;;;;;;;;;5005523;28;20029;-76
2023/08/30 05:18:35;;;;;;;13.68;12.30;;;;;;;;;;4992852;28;20037;-76
2023/08/30 05:21:03;;;;;;;14.95;11.43;;;;;;;;;;5014489;28;20025;-76
2023/08/30 05:23:28;;;;;;;14.27;11.13;;;;;;;;;;5013805;28;20453;-77
2023/08/30 05:25:54;;;;;;;13.68;12.25;;;;;;;;;;5010810;28;20045;-76
2023/08/30 05:28:19;;;;;;;17.40;13.00;;;;;;;;;;5008146;28;20410;-77
2023/08/30 05:30:44;;;;;;;14.35;12.85;;;;;;;;;;5017158;28;20048;-77
2023/08/30 05:33:10;;;;;;;14.07;12.57;;;;;;;;;;5013429;28;20029;-76
2023/08/30 05:35:35;;;;;;;16.65;13.35;;;;;;;;;;5017113;28;20026;-77
2023/08/30 05:38:00;;;;;;;16.45;13.80;;;;;;;;;;5017438;28;20506;-78
2023/08/30 05:40:26;;;;;;;17.52;14.15;;;;;;;;;;5011514;28;20406;-77
2023/08/30 05:42:51;;;;;;;15.30;13.32;;;;;;;;;;5010898;28;20029;-78
2023/08/30 05:45:17;;;;;;;15.68;12.93;;;;;;;;;;5015059;28;20068;-76
2023/08/30 05:47:42;;;;;;;13.25;11.85;;;;;;;;;;5015341;28;20110;-81
2023/08/30 05:50:08;;;;;;;13.40;11.90;;;;;;;;;;5007936;28;20021;-81
2023/08/30 05:52:33;;;;;;;14.93;13.15;;;;;;;;;;5005818;28;20064;-78
2023/08/30 05:54:58;;;;;;;18.52;12.60;;;;;;;;;;5012072;28;20049;-78
2023/08/30 05:57:25;;;;;;;14.60;13.02;;;;;;;;;;5013412;28;20048;-77
2023/08/30 05:59:50;;;;;;;15.23;12.80;;;;;;;;;;5012065;28;20449;-77
2023/08/30 06:02:16;;;;;;;15.23;13.65;;;;;;;;;;5009314;28;20172;-77
2023/08/30 06:04:41;;;;;;;14.10;12.75;;;;;;;;;;5015403;28;20040;-78
2023/08/30 06:07:08;;;;;;;18.40;12.25;;;;;;;;;;5013760;28;20022;-76
2023/08/30 06:09:33;;;;;;;18.25;11.68;;;;;;;;;;5019218;28;20422;-77
2023/08/30 06:11:58;;;;;;;15.18;11.75;;;;;;;;;;5021980;28;20029;-77
2023/08/30 06:14:24;;;;;;;12.10;10.65;;;;;;;;;;5018898;28;20394;-76
2023/08/30 06:16:49;;;;;;;13.50;10.60;;;;;;;;;;5016903;28;20404;-77
2023/08/30 06:19:14;;;;;;;17.08;10.48;;;;;;;;;;5019811;28;21081;-77
2023/08/30 06:21:40;;;;;;;11.63;10.25;;;;;;;;;;5013487;28;20069;-77
2023/08/30 06:24:05;;;;;;;12.10;9.95;;;;;;;;;;5014707;28;20017;-77
2023/08/30 06:26:31;;;;;;;19.50;9.55;;;;;;;;;;5017714;28;20037;-78
2023/08/30 06:28:56;;;;;;;11.27;10.05;;;;;;;;;;5018674;28;20040;-75
2023/08/30 06:31:21;;;;;;;11.57;10.05;;;;;;;;;;5017284;28;20025;-76
2023/08/30 06:33:48;;;;;;;10.73;9.38;;;;;;;;;;5015826;28;20056;-76
2023/08/30 06:36:15;;;;;;;11.23;9.75;;;;;;;;;;5018231;28;20071;-76
2023/08/30 06:38:41;;;;;;;11.82;9.95;;;;;;;;;;5019306;28;20103;-77
2023/08/30 06:41:06;;;;;;;10.32;9.05;;;;;;;;;;5013707;28;20100;-76
2023/08/30 06:43:31;;;;;;;12.48;9.13;;;;;;;;;;5018910;28;20037;-76
2023/08/30 06:45:58;;;;;;;14.43;9.07;;;;;;;;;;4998724;28;20136;-77
2023/08/30 06:48:23;;;;;;;11.27;8.70;;;;;;;;;;5019113;28;20053;-76
2023/08/30 06:50:49;;;;;;;11.45;8.82;;;;;;;;;;5018249;28;20022;-77
2023/08/30 06:53:14;;;;;;;12.02;9.35;;;;;;;;;;5015886;28;20085;-77
2023/08/30 06:55:40;;;;;;;15.23;10.02;;;;;;;;;;5015973;28;20044;-76
2023/08/30 06:58:05;;;;;;;12.90;9.48;;;;;;;;;;5017189;28;20037;-76
2023/08/30 07:00:30;;;;;;;13.15;8.80;;;;;;;;;;5012611;28;20029;-78
2023/08/30 07:02:56;;;;;;;12.63;8.50;;;;;;;;;;5007344;28;20078;-76
2023/08/30 07:05:22;;;;;;;10.77;8.82;;;;;;;;;;5004343;28;20111;-76
2023/08/30 07:07:48;;;;;;;13.40;9.43;;;;;;;;;;5005387;28;20044;-77
2023/08/30 07:10:13;;;;;;;10.75;8.60;;;;;;;;;;5006696;28;20120;-77
2023/08/30 07:12:38;;;;;;;13.00;8.68;;;;;;;;;;5008356;28;20463;-78
2023/08/30 07:15:04;;;;;;;10.85;8.25;;;;;;;;;;5005464;28;20029;-77
2023/08/30 07:17:29;;;;;;;11.63;7.70;;;;;;;;;;5005235;28;20083;-76
2023/08/30 07:19:55;;;;;;;9.27;6.93;;;;;;;;;;5005647;28;20207;-76
2023/08/30 07:22:20;;;;;;;10.60;6.65;;;;;;;;;;5005995;28;20116;-77
2023/08/30 07:24:46;;;;;;;12.93;7.75;;;;;;;;;;5004298;28;20453;-76
2023/08/30 07:27:12;;;;;;;9.02;6.70;;;;;;;;;;5003319;28;20376;-76
2023/08/30 07:29:38;;;;;;;10.77;7.22;;;;;;;;;;5007808;28;20403;-77
2023/08/30 07:32:03;;;;;;;12.82;7.40;;;;;;;;;;5001659;28;20017;-76
2023/08/30 07:34:29;;;;;;;10.48;6.45;;;;;;;;;;5007686;28;20111;-76
2023/08/30 07:36:55;;;;;;;10.18;6.85;;;;;;;;;;5002786;28;20377;-76
2023/08/30 07:39:20;;;;;;;7.57;5.13;;;;;;;;;;5005312;28;20759;-75
2023/08/30 07:41:46;;;;;;;9.38;5.55;;;;;;;;;;5005571;28;20025;-76
2023/08/30 07:44:11;;;;;;;8.95;5.50;;;;;;;;;;5002967;28;21237;-77
2023/08/30 07:46:36;;;;;;;8.30;4.05;;;;;;;;;;5005981;28;20279;-78
2023/08/30 07:49:02;;;;;;;10.80;4.60;;;;;;;;;;5006576;28;20140;-77
2023/08/30 07:51:27;;;;;;;10.23;4.57;;;;;;;;;;5004602;28;20029;-79
2023/08/30 07:53:53;;;;;;;9.73;4.00;;;;;;;;;;5005367;28;20025;-77
2023/08/30 07:56:18;;;;;;;12.10;4.63;;;;;;;;;;5006753;28;20385;-77
2023/08/30 07:58:44;;;;;;;9.40;4.20;;;;;;;;;;4986062;28;20033;-77
2023/08/30 08:01:09;;;;;;;7.85;4.53;;;;;;;;;;5007447;28;20064;-76
2023/08/30 08:03:34;;;;;;;8.15;4.40;;;;;;;;;;5004312;28;20025;-75
2023/08/30 08:06:00;;;;;;;7.10;4.05;;;;;;;;;;5000353;28;20033;-76
2023/08/30 08:08:25;;;;;;;10.02;4.35;;;;;;;;;;5010273;28;20457;-75
2023/08/30 08:10:51;;;;;;;8.30;4.22;;;;;;;;;;5016872;28;20083;-75
2023/08/30 08:13:16;;;;;;;6.63;3.83;;;;;;;;;;5014733;28;20104;-76
2023/08/30 08:15:41;;;;;;;7.22;3.22;;;;;;;;;;5016541;28;20769;-76
2023/08/30 08:18:07;;;;;;;11.68;3.72;;;;;;;;;;5018292;28;20040;-76
2023/08/30 08:20:32;;;;;;;8.25;4.00;;;;;;;;;;5016234;28;20041;-76
2023/08/30 08:22:58;;;;;;;7.38;3.40;;;;;;;;;;5004155;28;20025;-76
2023/08/30 08:25:24;;;;;;;7.05;3.20;;;;;;;;;;5003114;28;20041;-75
2023/08/30 08:27:50;;;;;;;7.10;3.42;;;;;;;;;;5003573;28;20048;-75
2023/08/30 08:30:16;;;;;;;7.97;3.28;;;;;;;;;;5011758;28;20112;-75
2023/08/30 08:32:41;;;;;;;8.00;3.50;;;;;;;;;;5014746;28;20412;-75
2023/08/30 08:35:07;;;;;;;9.60;3.65;;;;;;;;;;5013815;28;20022;-76
2023/08/30 08:37:33;;;;;;;8.15;3.33;;;;;;;;;;5013130;28;20067;-74
2023/08/30 08:39:58;;;;;;;8.23;3.70;;;;;;;;;;5008575;28;20372;-76
2023/08/30 08:42:24;;;;;;;24.45;15.55;;;;;;;;;;5014496;28;20073;-78
2023/08/30 08:44:50;;;;;;;9.43;6.75;;;;;;;;;;5015536;28;20032;-77
2023/08/30 08:47:19;;;;;;;6.60;3.00;;;;;;;;;;4999905;28;20121;-76
2023/08/30 08:49:45;;;;;;;11.43;3.53;;;;;;;;;;5010711;28;20022;-79
2023/08/30 08:52:10;;;;;;;9.95;3.47;;;;;;;;;;5003719;28;20452;-77
2023/08/30 08:54:38;;;;;;;14.00;4.30;;;;;;;;;;5005497;28;20029;-77
2023/08/30 08:57:04;;;;;;;47.08;30.33;;;;;;;;;;5005165;28;20063;-72
2023/08/30 08:59:30;;;;;;;7.50;3.65;;;;;;;;;;5016405;28;20034;-73
2023/08/30 09:01:55;;;;;;;5.55;3.28;;;;;;;;;;4999009;28;20043;-74
2023/08/30 09:04:21;;;;;;;7.85;3.80;;;;;;;;;;5010204;28;20178;-74
2023/08/30 09:06:47;;;;;;;8.55;3.45;;;;;;;;;;5012884;28;20033;-73
2023/08/30 09:09:12;;;;;;;5.82;3.25;;;;;;;;;;5015633;28;20044;-74
2023/08/30 09:11:38;;;;;;;5.63;2.90;;;;;;;;;;5007753;28;20060;-74
2023/08/30 09:14:03;;;;;;;6.78;3.50;;;;;;;;;;5015267;28;20116;-74
2023/08/30 09:16:28;;;;;;;4.72;2.53;;;;;;;;;;5016479;28;20437;-74
2023/08/30 09:19:00;;;;;;;4.70;2.58;;;;;;;;;;5016732;28;20029;-73
2023/08/30 09:21:26;;;;;;;9.80;4.22;;;;;;;;;;5014739;28;20049;-75
2023/08/30 09:24:02;;;;;;;16.17;8.02;;;;;;;;;;5016533;28;20092;-73
2023/08/30 09:26:28;;;;;;;10.73;4.72;;;;;;;;;;5013516;28;20029;-77
2023/08/30 09:28:53;;;;;;;13.30;5.22;;;;;;;;;;5015539;28;20040;-74
2023/08/30 09:31:22;;;;;;;5.53;2.67;;;;;;;;;;5017644;28;20087;-75
2023/08/30 09:33:50;;;;;;;3.57;2.33;;;;;;;;;;5014520;28;20017;-75
2023/08/30 09:36:16;;;;;;;4.50;2.42;;;;;;;;;;5016660;28;20022;-75
2023/08/30 09:38:41;;;;;;;8.75;3.50;;;;;;;;;;5016521;28;20628;-74
2023/08/30 09:41:06;;;;;;;6.00;2.83;;;;;;;;;;5018627;28;20352;-75
2023/08/30 09:43:32;;;;;;;9.45;3.40;;;;;;;;;;5019944;28;20033;-74
2023/08/30 09:45:58;;;;;;;6.18;3.33;;;;;;;;;;5019925;28;20029;-75
2023/08/30 09:48:27;;;;;;;11.48;3.60;;;;;;;;;;4992072;28;20046;-75
2023/08/30 09:50:54;;;;;;;8.02;3.30;;;;;;;;;;4982253;28;20446;-73
2023/08/30 09:53:21;;;;;;;5.97;3.33;;;;;;;;;;4987801;28;20029;-75
2023/08/30 09:55:48;;;;;;;8.30;3.28;;;;;;;;;;4973820;28;20022;-75
2023/08/30 09:58:14;;;;;;;7.10;3.92;;;;;;;;;;4997009;28;20484;-75
2023/08/30 10:00:39;;;;;;;7.15;3.63;;;;;;;;;;4978435;28;20038;-73
2023/08/30 10:03:05;;;;;;;7.30;4.38;;;;;;;;;;5000205;28;20053;-73
2023/08/30 10:05:31;;;;;;;7.15;4.03;;;;;;;;;;5001370;28;20030;-73
2023/08/30 10:07:56;;;;;;;7.03;3.70;;;;;;;;;;4999392;28;20256;-72
2023/08/30 10:10:22;;;;;;;4.70;3.10;;;;;;;;;;4993729;28;20137;-75
2023/08/30 10:12:49;;;;;;;6.05;3.25;;;;;;;;;;4992952;28;20021;-74
2023/08/30 10:15:14;;;;;;;4.28;2.75;;;;;;;;;;5000892;28;20089;-72
2023/08/30 10:17:43;;;;;;;4.60;2.67;;;;;;;;;;4999808;28;20280;-79
2023/08/30 10:20:08;;;;;;;6.97;3.15;;;;;;;;;;4977143;28;20034;-76
2023/08/30 10:22:38;;;;;;;3.92;2.70;;;;;;;;;;4986776;28;20034;-78
2023/08/30 10:25:05;;;;;;;7.25;2.80;;;;;;;;;;4987211;28;20088;-81
2023/08/30 10:27:34;;;;;;;7.60;3.13;;;;;;;;;;4999245;28;20508;-79
2023/08/30 10:30:04;;;;;;;4.82;2.88;;;;;;;;;;4999822;28;20094;-81
2023/08/30 10:32:31;;;;;;;9.23;3.80;;;;;;;;;;4999177;28;20029;-80
2023/08/30 10:35:00;;;;;;;9.25;3.67;;;;;;;;;;5002465;28;20088;-81
2023/08/30 10:37:26;;;;;;;6.85;3.28;;;;;;;;;;5000207;28;20022;-78
2023/08/30 10:39:52;;;;;;;5.13;2.97;;;;;;;;;;4999586;28;20027;-79
2023/08/30 10:42:21;;;;;;;4.72;3.03;;;;;;;;;;5001153;28;20386;-78
2023/08/30 10:44:50;;;;;;;4.35;2.72;;;;;;;;;;4999955;28;20318;-78
2023/08/30 10:47:15;;;;;;;;;;;;;;;;;;5006770;28;20079;-78
2023/08/30 10:49:42;;;;;;;8.97;3.23;;;;;;;;;;5019695;28;19940;-77
2023/08/30 10:52:11;;;;;;;7.18;2.60;;;;;;;;;;5019312;28;20033;-81
2023/08/30 10:54:40;;;;;;;7.97;3.10;;;;;;;;;;5006713;28;20352;-83
2023/08/30 10:57:05;;;;;;;6.57;3.55;;;;;;;;;;5009972;28;20049;-80
2023/08/30 10:59:30;;;;;;;13.05;3.47;;;;;;;;;;5013712;28;20151;-78
2023/08/30 11:01:56;;;;;;;8.38;3.08;;;;;;;;;;5016636;28;20026;-78
2023/08/30 11:04:24;;;;;;;12.23;3.67;;;;;;;;;;5019431;28;20034;-78
2023/08/30 11:06:50;;;;;;;4.28;3.00;;;;;;;;;;5011060;28;20022;-77
2023/08/30 11:09:20;;;;;;;5.95;2.70;;;;;;;;;;5002102;28;20041;-80
2023/08/30 11:11:49;;;;;;;8.20;3.50;;;;;;;;;;5019816;28;20041;-80
2023/08/30 11:14:14;;;;;;;8.88;3.42;;;;;;;;;;5022843;28;20033;-79
2023/08/30 11:16:40;;;;;;;13.88;6.43;;;;;;;;;;5003699;28;20025;-77
2023/08/30 11:19:06;;;;;;;5.93;3.22;;;;;;;;;;5014978;28;20073;-89
2023/08/30 11:21:33;;;;;;;11.95;3.35;;;;;;;;;;5007437;28;20041;-78
2023/08/30 11:23:58;;;;;;;4.63;2.97;;;;;;;;;;5027632;28;20064;-78
2023/08/30 11:26:23;;;;;;;5.90;2.88;;;;;;;;;;5037973;28;20040;-78
2023/08/30 11:28:51;;;;;;;5.20;2.72;;;;;;;;;;5029117;28;20024;-81
2023/08/30 11:31:29;;;;;;;6.57;2.92;;;;;;;;;;5023140;28;20447;-81
2023/08/30 11:33:58;;;;;;;4.57;2.78;;;;;;;;;;5026678;28;20067;-78
2023/08/30 11:36:26;;;;;;;5.70;2.75;;;;;;;;;;5022470;28;20036;-80
2023/08/30 11:38:52;;;;;;;10.05;4.78;;;;;;;;;;5030438;28;20057;-79
2023/08/30 11:41:19;;;;;;;15.48;3.95;;;;;;;;;;5005879;28;20032;-84
2023/08/30 11:43:45;;;;;;;9.02;4.03;;;;;;;;;;5026444;28;20063;-85
2023/08/30 11:46:12;;;;;;;10.80;4.13;;;;;;;;;;5020596;28;20056;-80
2023/08/30 11:48:37;;;;;;;11.18;4.10;;;;;;;;;;5024453;28;20476;-81
2023/08/30 11:51:03;;;;;;;18.63;5.40;;;;;;;;;;5027361;28;20040;-82
2023/08/30 11:53:28;;;;;;;16.20;4.55;;;;;;;;;;5027031;28;20051;-82
2023/08/30 11:55:54;;;;;;;22.25;5.95;;;;;;;;;;5026024;28;20025;-83
2023/08/30 11:58:19;;;;;;;20.23;4.70;;;;;;;;;;5027106;28;20082;-80
2023/08/30 12:00:45;;;;;;;21.75;4.85;;;;;;;;;;5024377;28;20037;-82
2023/08/30 12:03:13;;;;;;;15.40;4.70;;;;;;;;;;5025936;28;20032;-80
2023/08/30 12:05:43;;;;;;;16.70;5.60;;;;;;;;;;5026035;28;20029;-84
2023/08/30 12:08:17;;;;;;;8.10;3.50;;;;;;;;;;5037195;28;20140;-81
2023/08/30 12:10:42;;;;;;;8.38;3.80;;;;;;;;;;5034845;28;20339;-78
2023/08/30 12:13:07;;;;;;;6.97;3.58;;;;;;;;;;5023324;28;20056;-79
2023/08/30 12:15:34;;;;;;;9.88;3.42;;;;;;;;;;5029577;28;20525;-81
2023/08/30 12:18:05;;;;;;;3.95;2.97;;;;;;;;;;5021124;28;20021;-81
2023/08/30 12:20:31;;;;;;;10.13;3.63;;;;;;;;;;5020121;28;20487;-81
2023/08/30 12:22:56;;;;;;;6.88;3.75;;;;;;;;;;5029828;28;20104;-81
2023/08/30 12:25:26;;;;;;;9.52;3.95;;;;;;;;;;5033174;28;20037;-79
2023/08/30 12:27:52;;;;;;;9.52;5.30;;;;;;;;;;5020155;28;20115;-81
2023/08/30 12:30:18;;;;;;;8.30;4.18;;;;;;;;;;5026753;28;20037;-77
2023/08/30 12:32:44;;;;;;;7.35;3.17;;;;;;;;;;5037719;28;20032;-79
2023/08/30 12:35:09;;;;;;;8.90;3.53;;;;;;;;;;5024422;28;20032;-78
2023/08/30 12:37:35;;;;;;;6.70;3.58;;;;;;;;;;5037986;28;20044;-80
2023/08/30 12:40:00;;;;;;;7.93;3.80;;;;;;;;;;5027008;28;23654;-79
2023/08/30 12:42:26;;;;;;;5.35;3.20;;;;;;;;;;5031457;28;20021;-79
2023/08/30 12:44:51;;;;;;;8.07;3.42;;;;;;;;;;5038381;28;20474;-77
2023/08/30 12:47:17;;;;;;;10.85;3.20;;;;;;;;;;5036556;28;20114;-79
2023/08/30 12:49:42;;;;;;;7.50;3.15;;;;;;;;;;5025091;28;20052;-81
2023/08/30 12:52:07;;;;;;;6.20;2.75;;;;;;;;;;5023115;28;20135;-82
2023/08/30 12:54:33;;;;;;;9.23;2.95;;;;;;;;;;5021574;28;20028;-82
2023/08/30 12:56:58;;;;;;;6.68;3.00;;;;;;;;;;5027458;28;20475;-78
2023/08/30 12:59:24;;;;;;;5.93;3.13;;;;;;;;;;5022939;28;20378;-78
2023/08/30 13:01:49;;;;;;;4.53;2.65;;;;;;;;;;5005397;28;20348;-81
2023/08/30 13:04:15;;;;;;;5.50;2.63;;;;;;;;;;5026761;28;20598;-82
2023/08/30 13:06:40;;;;;;;5.28;2.67;;;;;;;;;;5035970;28;20043;-79
2023/08/30 13:09:06;;;;;;;10.40;2.88;;;;;;;;;;5034846;28;20048;-78
2023/08/30 13:11:32;;;;;;;6.80;3.20;;;;;;;;;;5027055;28;20353;-77
2023/08/30 13:13:57;;;;;;;7.47;2.50;;;;;;;;;;5030957;28;20036;-77
2023/08/30 13:16:23;;;;;;;9.52;2.70;;;;;;;;;;5036780;28;20025;-75
2023/08/30 13:18:48;;;;;;;4.72;2.58;;;;;;;;;;5034408;28;20021;-77
2023/08/30 13:21:14;;;;;;;4.85;2.22;;;;;;;;;;5028040;28;20036;-78
2023/08/30 13:23:39;;;;;;;4.43;2.45;;;;;;;;;;5031978;28;20063;-77
2023/08/30 13:26:04;;;;;;;4.82;2.10;;;;;;;;;;5033250;28;20041;-76
2023/08/30 13:28:30;;;;;;;3.72;2.22;;;;;;;;;;5026257;28;20028;-79
2023/08/30 13:30:55;;;;;;;7.22;2.70;;;;;;;;;;5026087;28;20510;-77
2023/08/30 13:33:21;;;;;;;3.42;2.58;;;;;;;;;;5026084;28;20418;-75
2023/08/30 13:35:50;;;;;;;4.35;2.17;;;;;;;;;;5023512;28;20029;-75
2023/08/30 13:38:16;;;;;;;3.60;2.53;;;;;;;;;;5034371;28;20482;-73
2023/08/30 13:40:41;;;;;;;9.98;4.30;;;;;;;;;;5038247;28;20041;-73
2023/08/30 13:43:06;;;;;;;6.63;3.45;;;;;;;;;;5023608;28;20048;-77
2023/08/30 13:45:32;;;;;;;3.50;2.30;;;;;;;;;;5018108;28;20033;-79
2023/08/30 13:47:58;;;;;;;8.30;4.22;;;;;;;;;;5037390;28;20059;-76
2023/08/30 13:50:23;;;;;;;9.85;3.50;;;;;;;;;;5039327;28;20033;-75
2023/08/30 13:52:48;;;;;;;5.05;2.88;;;;;;;;;;5036665;28;20083;-75
2023/08/30 13:55:14;;;;;;;3.30;2.10;;;;;;;;;;5030347;28;20095;-76
2023/08/30 13:57:39;;;;;;;5.07;2.38;;;;;;;;;;5026928;28;20037;-75
2023/08/30 14:00:09;;;;;;;8.68;2.13;;;;;;;;;;5036868;28;20029;-76
2023/08/30 14:02:35;;;;;;;4.78;1.80;;;;;;;;;;5027203;28;20029;-78
2023/08/30 14:05:00;;;;;;;7.40;2.40;;;;;;;;;;5027972;28;20418;-75
2023/08/30 14:07:25;;;;;;;2.90;1.58;;;;;;;;;;5024990;28;20440;-76
2023/08/30 14:09:51;;;;;;;2.72;1.85;;;;;;;;;;5034199;28;20033;-77
2023/08/30 14:12:17;;;;;;;4.80;2.20;;;;;;;;;;5037496;28;20029;-78
2023/08/30 14:14:42;;;;;;;3.42;2.28;;;;;;;;;;5031571;28;20035;-74
2023/08/30 14:17:07;;;;;;;4.88;2.13;;;;;;;;;;5023616;28;20451;-78
2023/08/30 14:19:36;;;;;;;8.05;2.17;;;;;;;;;;5031131;28;20451;-75
2023/08/30 14:22:03;;;;;;;6.55;2.55;;;;;;;;;;5033291;28;20025;-75
2023/08/30 14:24:29;;;;;;;3.72;2.10;;;;;;;;;;5034079;28;20057;-77